Terminal Aerodrome Forecast
Issued by NWS

Current Version | Previous Version | Text Only | Print | Product List | Glossary On
Versions: 1 2 3 4 5 6 7 8 9 10 11 12 13 14 15 16 17 18 19 20 21 22 23 24 25 26 27
000
FTUS43 KDLH 030800 AAA
TAFBRD
TAF AMD
KBRD 030823Z 0308/0406 18012KT P6SM VCSH OVC030
      TEMPO 0308/0311 2SM -SN SCT008 OVC015
     FM031100 20010KT 1/2SM SN OVC008
     FM031600 25010KT 5SM -SN BLSN OVC025
     FM032000 32018G28KT 6SM BLSN OVC030=

USA.gov is the U.S. government's official web portal to all federal, state and local government web resources and services.